createdAt,value
2023-01-13T00:04:43.268Z,100903.38
2023-01-13T00:09:45.414Z,100904.87
2023-01-13T00:14:47.571Z,100914.69
2023-01-13T00:19:50.042Z,100906.38
2023-01-13T00:24:52.361Z,100901.34
2023-01-13T00:29:54.433Z,100889.69
2023-01-13T00:34:56.534Z,100875.09
2023-01-13T00:39:58.593Z,100884.06
2023-01-13T00:45:00.818Z,100886.56
2023-01-13T00:50:02.967Z,100874.09
2023-01-13T00:55:05.483Z,100889.09
2023-01-13T01:00:08.585Z,100876.38
2023-01-13T01:05:10.833Z,100880.56
2023-01-13T01:10:12.908Z,100889.53
2023-01-13T01:15:15.090Z,100892.62
2023-01-13T01:20:17.312Z,100878.84
2023-01-13T01:25:19.414Z,100881.97
2023-01-13T01:30:21.473Z,100877.41
2023-01-13T01:35:26.366Z,100873.84
2023-01-13T01:40:28.438Z,100865.97
2023-01-13T01:45:31.318Z,100853.03
2023-01-13T01:50:34.344Z,100843.84
2023-01-13T01:55:38.512Z,100848.84
2023-01-13T02:00:40.793Z,100841.31
2023-01-13T02:05:43.039Z,100838.59
2023-01-13T02:10:53.236Z,100832.12
2023-01-13T02:16:07.970Z,100828.16
2023-01-13T02:21:13.667Z,100836.84
2023-01-13T02:26:21.656Z,100827.00
2023-01-13T02:31:42.340Z,100835.03
2023-01-13T02:36:53.379Z,100815.31
2023-01-13T02:42:33.658Z,100825.69
2023-01-13T02:47:39.432Z,100800.72
2023-01-13T02:52:45.840Z,100798.50
2023-01-13T02:57:49.717Z,100816.28
2023-01-13T03:02:52.252Z,100803.03
2023-01-13T03:08:10.067Z,100808.78
2023-01-13T03:14:16.978Z,100791.94
2023-01-13T03:19:42.920Z,100809.44
2023-01-13T03:24:50.999Z,100796.53
2023-01-13T03:30:02.014Z,100795.09
2023-01-13T03:35:23.603Z,100796.31
2023-01-13T03:40:35.327Z,100796.56
2023-01-13T03:45:41.361Z,100783.19
2023-01-13T03:51:08.013Z,100783.38
2023-01-13T03:56:39.641Z,100783.78
2023-01-13T04:01:47.845Z,100775.22
2023-01-13T04:07:00.601Z,100777.69
2023-01-13T04:12:18.535Z,100789.41
2023-01-13T04:17:21.358Z,100799.81
2023-01-13T04:22:23.444Z,100787.28
2023-01-13T04:27:25.536Z,100786.88
2023-01-13T04:32:27.681Z,100779.16
2023-01-13T04:37:29.779Z,100800.81
2023-01-13T04:42:31.921Z,100792.69
2023-01-13T04:47:34.021Z,100792.31
2023-01-13T04:52:36.143Z,100795.22
2023-01-13T04:57:38.430Z,100782.31
2023-01-13T05:02:40.985Z,100800.88
2023-01-13T05:07:43.054Z,100786.94
2023-01-13T05:13:04.854Z,100800.09
2023-01-13T05:18:07.353Z,100786.81
2023-01-13T05:23:28.167Z,100811.62
2023-01-13T05:28:34.505Z,100798.97
2023-01-13T05:33:36.621Z,100823.75
2023-01-13T05:38:38.830Z,100820.63
2023-01-13T05:43:40.954Z,100826.09
2023-01-13T05:48:43.819Z,100822.31
2023-01-13T05:53:45.928Z,100808.38
2023-01-13T05:58:48.008Z,100820.88
2023-01-13T06:03:50.182Z,100808.34
2023-01-13T06:08:52.318Z,100803.41
2023-01-13T06:13:54.423Z,100826.69
2023-01-13T06:18:56.558Z,100822.09
2023-01-13T06:23:59.573Z,100827.53
2023-01-13T06:29:01.700Z,100838.19
2023-01-13T06:34:08.971Z,100832.06
2023-01-13T06:39:16.856Z,100829.13
2023-01-13T06:44:20.432Z,100811.75
2023-01-13T06:49:22.532Z,100818.84
2023-01-13T06:54:26.324Z,100829.47
2023-01-13T06:59:30.180Z,100850.97
2023-01-13T07:04:32.299Z,100843.44
2023-01-13T07:09:35.616Z,100855.59
2023-01-13T07:14:56.428Z,100843.06
2023-01-13T07:20:01.719Z,100837.16
2023-01-13T07:25:04.288Z,100852.75
2023-01-13T07:30:07.609Z,100843.03
2023-01-13T07:35:09.981Z,100823.72
2023-01-13T07:40:13.096Z,100854.53
2023-01-13T07:45:15.228Z,100844.03
2023-01-13T07:50:17.512Z,100855.03
2023-01-13T07:55:19.654Z,100855.66
2023-01-13T08:00:22.316Z,100857.75
2023-01-13T08:05:24.464Z,100851.31
2023-01-13T08:10:26.616Z,100857.00
2023-01-13T08:15:29.808Z,100877.63
2023-01-13T08:20:31.927Z,100870.63
2023-01-13T08:25:34.212Z,100875.06
2023-01-13T08:30:36.479Z,100856.50
2023-01-13T08:35:40.033Z,100878.63
2023-01-13T08:40:42.199Z,100893.16
2023-01-13T08:45:44.434Z,100894.69
2023-01-13T08:50:46.576Z,100888.94
2023-01-13T08:55:48.714Z,100884.59
2023-01-13T09:00:50.898Z,100895.09
2023-01-13T09:05:53.020Z,100886.84
2023-01-13T09:10:55.191Z,100889.66
2023-01-13T09:15:58.643Z,100898.75
2023-01-13T09:21:01.842Z,100893.88
2023-01-13T09:26:07.321Z,100888.19
2023-01-13T09:31:09.642Z,100902.91
2023-01-13T09:36:11.908Z,100894.25
2023-01-13T09:41:39.891Z,100906.31
2023-01-13T09:46:48.233Z,100897.41
2023-01-13T09:52:27.560Z,100899.25
2023-01-13T09:57:34.770Z,100888.44
2023-01-13T10:02:36.839Z,100889.94
2023-01-13T10:07:46.724Z,100892.62
2023-01-13T10:13:08.879Z,100885.38
2023-01-13T10:18:24.676Z,100884.22
2023-01-13T10:23:56.712Z,100885.28
2023-01-13T10:28:58.813Z,100889.03
2023-01-13T10:34:06.456Z,100885.06
2023-01-13T10:39:15.194Z,100872.84
2023-01-13T10:44:18.871Z,100868.94
2023-01-13T10:49:36.468Z,100866.66
2023-01-13T10:54:53.948Z,100849.22
2023-01-13T10:59:56.452Z,100844.03
2023-01-13T11:05:03.624Z,100842.03
2023-01-13T11:10:28.143Z,100817.88
2023-01-13T11:15:40.766Z,100839.97
2023-01-13T11:20:51.938Z,100825.75
2023-01-13T11:26:01.813Z,100818.59
2023-01-13T11:31:52.091Z,100808.84
2023-01-13T11:36:56.902Z,100799.66
2023-01-13T11:42:21.670Z,100787.38
2023-01-13T11:47:26.080Z,100786.56
2023-01-13T11:52:46.133Z,100795.56
2023-01-13T11:58:12.917Z,100791.16
2023-01-13T12:03:31.437Z,100751.72
2023-01-13T12:09:12.000Z,100754.88
2023-01-13T12:14:26.357Z,100751.94
2023-01-13T12:19:30.982Z,100732.03
2023-01-13T12:24:56.621Z,100727.78
2023-01-13T12:30:01.954Z,100714.91
2023-01-13T12:35:19.164Z,100722.03
2023-01-13T12:40:48.070Z,100738.53
2023-01-13T12:45:50.203Z,100734.47
2023-01-13T12:51:00.745Z,100725.59
2023-01-13T12:56:21.627Z,100736.84
2023-01-13T13:01:35.884Z,100731.09
2023-01-13T13:06:45.143Z,100723.22
2023-01-13T13:11:58.392Z,100726.56
2023-01-13T13:17:01.157Z,100738.06
2023-01-13T13:22:10.020Z,100746.75
2023-01-13T13:27:38.310Z,100747.56
2023-01-13T13:32:46.593Z,100747.84
2023-01-13T13:38:41.671Z,100755.72
2023-01-13T13:44:04.487Z,100732.03
2023-01-13T13:49:06.670Z,100719.09
2023-01-13T13:54:16.901Z,100725.88
2023-01-13T13:59:30.674Z,100751.81
2023-01-13T14:04:40.769Z,100765.59
2023-01-13T14:09:46.361Z,100767.41
2023-01-13T14:14:49.848Z,100762.69
2023-01-13T14:20:10.412Z,100771.25
2023-01-13T14:25:38.333Z,100762.34
2023-01-13T14:30:42.066Z,100767.16
2023-01-13T14:36:14.738Z,100755.53
2023-01-13T14:41:22.092Z,100750.09
2023-01-13T14:46:25.667Z,100751.53
2023-01-13T14:51:30.242Z,100743.34
2023-01-13T14:57:01.735Z,100752.94
2023-01-13T15:02:25.649Z,100766.63
2023-01-13T15:07:30.304Z,100761.50
2023-01-13T15:12:40.664Z,100756.06
2023-01-13T15:17:42.847Z,100751.87
2023-01-13T15:22:45.706Z,100751.41
2023-01-13T15:27:51.782Z,100748.19
2023-01-13T15:32:56.174Z,100760.44
2023-01-13T15:37:58.710Z,100764.44
2023-01-13T15:43:19.592Z,100762.56
2023-01-13T15:48:24.029Z,100760.31
2023-01-13T15:53:26.257Z,100752.59
2023-01-13T15:58:30.659Z,100767.78
2023-01-13T16:03:32.818Z,100780.94
2023-01-13T16:08:35.007Z,100768.97
2023-01-13T16:13:37.380Z,100777.62
2023-01-13T16:18:39.521Z,100778.47
2023-01-13T16:23:42.235Z,100770.16
2023-01-13T16:28:44.702Z,100761.72
2023-01-13T16:33:46.939Z,100778.00
2023-01-13T16:38:51.239Z,100780.94
2023-01-13T16:43:53.612Z,100771.34
2023-01-13T16:49:04.404Z,100765.91
2023-01-13T16:54:06.826Z,100770.28
2023-01-13T16:59:14.861Z,100741.25
2023-01-13T17:04:20.245Z,100746.44
2023-01-13T17:09:24.996Z,100753.56
2023-01-13T17:14:27.289Z,100788.34
2023-01-13T17:19:29.467Z,100783.84
2023-01-13T17:24:32.704Z,100770.53
2023-01-13T17:29:35.380Z,100785.63
2023-01-13T17:34:37.573Z,100789.91
2023-01-13T17:39:40.100Z,100777.53
2023-01-13T17:44:42.493Z,100774.69
2023-01-13T17:49:44.678Z,100789.63
2023-01-13T17:54:46.836Z,100788.69
2023-01-13T17:59:48.963Z,100793.81
2023-01-13T18:04:51.092Z,100797.72
2023-01-13T18:09:53.239Z,100799.41
2023-01-13T18:14:55.914Z,100795.38
2023-01-13T18:20:16.727Z,100800.00
2023-01-13T18:25:37.412Z,100800.81
2023-01-13T18:30:39.542Z,100812.09
2023-01-13T18:35:41.666Z,100806.16
2023-01-13T18:40:44.945Z,100812.69
2023-01-13T18:45:50.444Z,100813.41
2023-01-13T18:50:53.428Z,100795.12
2023-01-13T18:55:55.575Z,100799.28
2023-01-13T19:01:05.279Z,100814.13
2023-01-13T19:06:13.193Z,100821.13
2023-01-13T19:11:15.295Z,100827.91
2023-01-13T19:16:19.204Z,100825.97
2023-01-13T19:21:21.678Z,100826.22
2023-01-13T19:26:23.809Z,100822.41
2023-01-13T19:31:25.936Z,100817.06
2023-01-13T19:36:28.230Z,100829.41
2023-01-13T19:41:49.483Z,100849.00
2023-01-13T19:46:51.659Z,100858.03
2023-01-13T19:51:53.768Z,100860.03
2023-01-13T19:56:56.099Z,100866.91
2023-01-13T20:02:00.627Z,100884.53
2023-01-13T20:07:03.922Z,100889.75
2023-01-13T20:12:15.340Z,100891.66
2023-01-13T20:17:19.768Z,100888.28
2023-01-13T20:22:21.901Z,100882.56
2023-01-13T20:27:24.341Z,100879.84
2023-01-13T20:32:26.525Z,100879.50
2023-01-13T20:37:28.648Z,100876.03
2023-01-13T20:42:52.479Z,100851.84
2023-01-13T20:47:54.918Z,100848.53
2023-01-13T20:52:57.010Z,100876.34
2023-01-13T20:57:59.103Z,100890.81
2023-01-13T21:03:01.198Z,100877.84
2023-01-13T21:08:03.439Z,100883.94
2023-01-13T21:13:24.276Z,100893.25
2023-01-13T21:18:44.813Z,100885.56
2023-01-13T21:23:49.862Z,100865.25
2023-01-13T21:28:57.193Z,100870.47
2023-01-13T21:33:59.772Z,100867.13
2023-01-13T21:39:01.899Z,100867.28
2023-01-13T21:44:22.705Z,100852.50
2023-01-13T21:49:24.807Z,100850.75
2023-01-13T21:54:26.894Z,100848.84
2023-01-13T21:59:28.957Z,100841.25
2023-01-13T22:04:31.063Z,100832.53
2023-01-13T22:09:33.167Z,100834.25
2023-01-13T22:14:36.290Z,100847.44
2023-01-13T22:19:42.122Z,100869.94
2023-01-13T22:24:46.465Z,100924.19
2023-01-13T22:29:49.807Z,100927.41
2023-01-13T22:34:51.916Z,100932.25
2023-01-13T22:39:53.997Z,100948.31
2023-01-13T22:44:56.095Z,100943.41
2023-01-13T22:49:58.178Z,100954.22
2023-01-13T22:55:00.946Z,100959.13
2023-01-13T23:00:04.808Z,100953.94
2023-01-13T23:05:07.288Z,100923.88
2023-01-13T23:10:09.870Z,100914.72
2023-01-13T23:15:12.013Z,100903.81
2023-01-13T23:20:14.472Z,100891.94
2023-01-13T23:25:16.652Z,100870.03
2023-01-13T23:30:19.087Z,100875.25
2023-01-13T23:35:21.179Z,100875.75
2023-01-13T23:40:23.246Z,100876.69
2023-01-13T23:45:25.387Z,100888.44
2023-01-13T23:50:27.508Z,100877.19
2023-01-13T23:55:29.732Z,100878.97
